sensor_id;sensor_type;location;lat;lon;timestamp;P1;durP1;ratioP1;P2;durP2;ratioP2
25435;SDS011;13363;52.772;-3.890;2022-12-07T00:01:40;3.93;;;1.53;;
25435;SDS011;13363;52.772;-3.890;2022-12-07T00:04:08;2.50;;;1.60;;
25435;SDS011;13363;52.772;-3.890;2022-12-07T00:09:04;1.87;;;1.37;;
25435;SDS011;13363;52.772;-3.890;2022-12-07T00:11:31;1.13;;;1.13;;
25435;SDS011;13363;52.772;-3.890;2022-12-07T00:13:58;2.37;;;1.20;;
25435;SDS011;13363;52.772;-3.890;2022-12-07T00:16:27;2.03;;;1.27;;
25435;SDS011;13363;52.772;-3.890;2022-12-07T00:18:55;1.70;;;1.60;;
25435;SDS011;13363;52.772;-3.890;2022-12-07T00:21:22;1.90;;;1.27;;
25435;SDS011;13363;52.772;-3.890;2022-12-07T00:23:56;2.43;;;1.27;;
25435;SDS011;13363;52.772;-3.890;2022-12-07T00:26:24;1.90;;;1.63;;
25435;SDS011;13363;52.772;-3.890;2022-12-07T00:28:53;1.33;;;1.27;;
25435;SDS011;13363;52.772;-3.890;2022-12-07T00:31:21;1.60;;;1.30;;
25435;SDS011;13363;52.772;-3.890;2022-12-07T00:33:48;1.40;;;1.30;;
25435;SDS011;13363;52.772;-3.890;2022-12-07T00:36:17;3.00;;;1.43;;
25435;SDS011;13363;52.772;-3.890;2022-12-07T00:38:45;1.60;;;1.50;;
25435;SDS011;13363;52.772;-3.890;2022-12-07T00:41:15;3.63;;;1.60;;
25435;SDS011;13363;52.772;-3.890;2022-12-07T00:43:43;2.23;;;1.53;;
25435;SDS011;13363;52.772;-3.890;2022-12-07T00:46:10;3.17;;;1.50;;
25435;SDS011;13363;52.772;-3.890;2022-12-07T00:48:37;2.97;;;1.40;;
25435;SDS011;13363;52.772;-3.890;2022-12-07T00:51:03;3.00;;;1.40;;
25435;SDS011;13363;52.772;-3.890;2022-12-07T00:53:30;2.43;;;1.30;;
25435;SDS011;13363;52.772;-3.890;2022-12-07T00:55:56;1.40;;;1.30;;
25435;SDS011;13363;52.772;-3.890;2022-12-07T00:58:22;1.83;;;1.47;;
25435;SDS011;13363;52.772;-3.890;2022-12-07T01:00:49;1.20;;;1.00;;
25435;SDS011;13363;52.772;-3.890;2022-12-07T01:03:15;1.40;;;1.30;;
25435;SDS011;13363;52.772;-3.890;2022-12-07T01:05:48;1.73;;;1.30;;
25435;SDS011;13363;52.772;-3.890;2022-12-07T01:08:19;1.93;;;1.53;;
25435;SDS011;13363;52.772;-3.890;2022-12-07T01:10:45;2.13;;;1.30;;
25435;SDS011;13363;52.772;-3.890;2022-12-07T01:13:11;1.70;;;1.33;;
25435;SDS011;13363;52.772;-3.890;2022-12-07T01:15:41;3.33;;;2.33;;
25435;SDS011;13363;52.772;-3.890;2022-12-07T01:18:08;1.50;;;1.10;;
25435;SDS011;13363;52.772;-3.890;2022-12-07T01:20:34;1.80;;;0.83;;
25435;SDS011;13363;52.772;-3.890;2022-12-07T01:23:01;1.87;;;1.50;;
25435;SDS011;13363;52.772;-3.890;2022-12-07T01:25:26;2.17;;;1.57;;
25435;SDS011;13363;52.772;-3.890;2022-12-07T01:27:52;1.50;;;1.30;;
25435;SDS011;13363;52.772;-3.890;2022-12-07T01:30:18;2.57;;;1.20;;
25435;SDS011;13363;52.772;-3.890;2022-12-07T01:32:44;1.67;;;1.20;;
25435;SDS011;13363;52.772;-3.890;2022-12-07T01:35:10;1.70;;;1.13;;
25435;SDS011;13363;52.772;-3.890;2022-12-07T01:37:36;1.60;;;1.03;;
25435;SDS011;13363;52.772;-3.890;2022-12-07T01:40:03;1.90;;;1.40;;
25435;SDS011;13363;52.772;-3.890;2022-12-07T01:42:30;4.20;;;1.80;;
25435;SDS011;13363;52.772;-3.890;2022-12-07T01:47:47;1.27;;;1.17;;
25435;SDS011;13363;52.772;-3.890;2022-12-07T01:50:24;2.43;;;1.33;;
25435;SDS011;13363;52.772;-3.890;2022-12-07T01:52:53;2.10;;;1.17;;
25435;SDS011;13363;52.772;-3.890;2022-12-07T01:55:23;1.13;;;1.13;;
25435;SDS011;13363;52.772;-3.890;2022-12-07T01:57:50;1.23;;;1.13;;
25435;SDS011;13363;52.772;-3.890;2022-12-07T02:00:22;1.17;;;1.07;;
25435;SDS011;13363;52.772;-3.890;2022-12-07T02:02:58;1.23;;;1.20;;
25435;SDS011;13363;52.772;-3.890;2022-12-07T02:05:30;1.40;;;1.20;;
25435;SDS011;13363;52.772;-3.890;2022-12-07T02:07:57;1.00;;;0.90;;
25435;SDS011;13363;52.772;-3.890;2022-12-07T02:10:24;1.53;;;1.30;;
25435;SDS011;13363;52.772;-3.890;2022-12-07T02:13:02;2.23;;;1.10;;
25435;SDS011;13363;52.772;-3.890;2022-12-07T02:15:38;1.97;;;1.10;;
25435;SDS011;13363;52.772;-3.890;2022-12-07T02:18:28;1.80;;;1.10;;
25435;SDS011;13363;52.772;-3.890;2022-12-07T02:33:14;1.17;;;1.07;;
25435;SDS011;13363;52.772;-3.890;2022-12-07T02:35:32;1.00;;;1.00;;
25435;SDS011;13363;52.772;-3.890;2022-12-07T02:41:02;3.80;;;1.10;;
25435;SDS011;13363;52.772;-3.890;2022-12-07T02:43:52;1.20;;;1.10;;
25435;SDS011;13363;52.772;-3.890;2022-12-07T02:46:22;1.37;;;1.23;;
25435;SDS011;13363;52.772;-3.890;2022-12-07T02:48:52;2.93;;;1.30;;
25435;SDS011;13363;52.772;-3.890;2022-12-07T02:51:19;1.90;;;1.37;;
25435;SDS011;13363;52.772;-3.890;2022-12-07T02:53:47;3.50;;;1.10;;
25435;SDS011;13363;52.772;-3.890;2022-12-07T03:19:11;3.00;;;1.00;;
25435;SDS011;13363;52.772;-3.890;2022-12-07T03:22:15;1.77;;;1.13;;
25435;SDS011;13363;52.772;-3.890;2022-12-07T03:24:37;3.67;;;1.00;;
25435;SDS011;13363;52.772;-3.890;2022-12-07T03:27:11;1.93;;;1.10;;
25435;SDS011;13363;52.772;-3.890;2022-12-07T03:30:26;3.23;;;1.17;;
25435;SDS011;13363;52.772;-3.890;2022-12-07T03:32:35;1.70;;;1.20;;
25435;SDS011;13363;52.772;-3.890;2022-12-07T03:35:12;2.47;;;1.17;;
25435;SDS011;13363;52.772;-3.890;2022-12-07T03:37:45;1.30;;;1.23;;
25435;SDS011;13363;52.772;-3.890;2022-12-07T03:40:32;1.73;;;1.20;;
25435;SDS011;13363;52.772;-3.890;2022-12-07T03:43:14;1.20;;;0.93;;
25435;SDS011;13363;52.772;-3.890;2022-12-07T03:45:43;2.97;;;1.10;;
25435;SDS011;13363;52.772;-3.890;2022-12-07T03:48:22;1.17;;;0.97;;
25435;SDS011;13363;52.772;-3.890;2022-12-07T03:54:10;1.10;;;1.10;;
25435;SDS011;13363;52.772;-3.890;2022-12-07T03:56:42;1.40;;;1.30;;
25435;SDS011;13363;52.772;-3.890;2022-12-07T03:59:14;1.33;;;0.90;;
25435;SDS011;13363;52.772;-3.890;2022-12-07T04:01:41;2.13;;;1.20;;
25435;SDS011;13363;52.772;-3.890;2022-12-07T04:04:08;2.70;;;1.27;;
25435;SDS011;13363;52.772;-3.890;2022-12-07T04:06:34;0.70;;;0.70;;
25435;SDS011;13363;52.772;-3.890;2022-12-07T04:09:00;3.33;;;1.30;;
25435;SDS011;13363;52.772;-3.890;2022-12-07T04:11:26;2.60;;;1.20;;
25435;SDS011;13363;52.772;-3.890;2022-12-07T04:13:51;0.93;;;0.93;;
25435;SDS011;13363;52.772;-3.890;2022-12-07T04:16:35;6.10;;;0.93;;
25435;SDS011;13363;52.772;-3.890;2022-12-07T04:19:01;2.63;;;1.27;;
25435;SDS011;13363;52.772;-3.890;2022-12-07T04:21:27;2.80;;;1.03;;
25435;SDS011;13363;52.772;-3.890;2022-12-07T04:23:53;1.07;;;1.03;;
25435;SDS011;13363;52.772;-3.890;2022-12-07T04:26:18;2.43;;;1.00;;
25435;SDS011;13363;52.772;-3.890;2022-12-07T04:28:44;1.17;;;0.83;;
25435;SDS011;13363;52.772;-3.890;2022-12-07T04:31:10;3.73;;;1.03;;
25435;SDS011;13363;52.772;-3.890;2022-12-07T04:33:36;3.80;;;1.10;;
25435;SDS011;13363;52.772;-3.890;2022-12-07T04:36:02;1.47;;;1.10;;
25435;SDS011;13363;52.772;-3.890;2022-12-07T04:38:28;1.73;;;1.07;;
25435;SDS011;13363;52.772;-3.890;2022-12-07T04:40:54;1.13;;;0.83;;
25435;SDS011;13363;52.772;-3.890;2022-12-07T04:43:19;1.77;;;0.90;;
25435;SDS011;13363;52.772;-3.890;2022-12-07T04:45:48;2.00;;;0.90;;
25435;SDS011;13363;52.772;-3.890;2022-12-07T04:48:15;0.90;;;0.90;;
25435;SDS011;13363;52.772;-3.890;2022-12-07T04:50:41;2.33;;;1.13;;
25435;SDS011;13363;52.772;-3.890;2022-12-07T04:53:07;1.20;;;1.10;;
25435;SDS011;13363;52.772;-3.890;2022-12-07T04:55:33;1.50;;;1.03;;
25435;SDS011;13363;52.772;-3.890;2022-12-07T04:57:58;1.23;;;0.67;;
25435;SDS011;13363;52.772;-3.890;2022-12-07T05:00:24;1.90;;;0.97;;
25435;SDS011;13363;52.772;-3.890;2022-12-07T05:02:50;1.20;;;1.00;;
25435;SDS011;13363;52.772;-3.890;2022-12-07T05:05:16;0.93;;;0.90;;
25435;SDS011;13363;52.772;-3.890;2022-12-07T05:07:41;2.13;;;1.07;;
25435;SDS011;13363;52.772;-3.890;2022-12-07T05:10:07;1.73;;;0.90;;
25435;SDS011;13363;52.772;-3.890;2022-12-07T05:12:34;0.80;;;0.80;;
25435;SDS011;13363;52.772;-3.890;2022-12-07T05:14:59;2.90;;;1.40;;
25435;SDS011;13363;52.772;-3.890;2022-12-07T05:17:25;1.00;;;1.00;;
25435;SDS011;13363;52.772;-3.890;2022-12-07T05:19:51;4.70;;;1.27;;
25435;SDS011;13363;52.772;-3.890;2022-12-07T05:22:17;1.03;;;1.03;;
25435;SDS011;13363;52.772;-3.890;2022-12-07T05:24:43;1.00;;;0.90;;
25435;SDS011;13363;52.772;-3.890;2022-12-07T05:27:08;1.10;;;1.00;;
25435;SDS011;13363;52.772;-3.890;2022-12-07T05:29:34;1.00;;;0.90;;
25435;SDS011;13363;52.772;-3.890;2022-12-07T05:32:00;2.43;;;1.00;;
25435;SDS011;13363;52.772;-3.890;2022-12-07T05:34:26;2.17;;;0.90;;
25435;SDS011;13363;52.772;-3.890;2022-12-07T05:36:51;3.80;;;1.00;;
25435;SDS011;13363;52.772;-3.890;2022-12-07T05:39:17;2.93;;;1.50;;
25435;SDS011;13363;52.772;-3.890;2022-12-07T05:41:43;2.63;;;0.93;;
25435;SDS011;13363;52.772;-3.890;2022-12-07T05:44:27;2.93;;;1.00;;
25435;SDS011;13363;52.772;-3.890;2022-12-07T05:46:53;0.80;;;0.80;;
25435;SDS011;13363;52.772;-3.890;2022-12-07T05:49:19;2.30;;;1.43;;
25435;SDS011;13363;52.772;-3.890;2022-12-07T05:51:44;3.30;;;1.40;;
25435;SDS011;13363;52.772;-3.890;2022-12-07T05:54:10;3.20;;;1.10;;
25435;SDS011;13363;52.772;-3.890;2022-12-07T05:56:36;1.60;;;0.90;;
25435;SDS011;13363;52.772;-3.890;2022-12-07T05:59:02;1.50;;;0.80;;
25435;SDS011;13363;52.772;-3.890;2022-12-07T06:01:46;2.13;;;0.90;;
25435;SDS011;13363;52.772;-3.890;2022-12-07T06:04:12;2.70;;;1.20;;
25435;SDS011;13363;52.772;-3.890;2022-12-07T06:06:38;3.50;;;1.07;;
25435;SDS011;13363;52.772;-3.890;2022-12-07T06:09:04;0.80;;;0.80;;
25435;SDS011;13363;52.772;-3.890;2022-12-07T06:11:29;1.00;;;0.90;;
25435;SDS011;13363;52.772;-3.890;2022-12-07T06:14:13;2.77;;;1.00;;
25435;SDS011;13363;52.772;-3.890;2022-12-07T06:16:40;1.13;;;0.97;;
25435;SDS011;13363;52.772;-3.890;2022-12-07T06:19:06;1.10;;;0.97;;
25435;SDS011;13363;52.772;-3.890;2022-12-07T06:21:32;3.03;;;1.20;;
25435;SDS011;13363;52.772;-3.890;2022-12-07T06:23:58;1.63;;;0.83;;
25435;SDS011;13363;52.772;-3.890;2022-12-07T06:26:24;1.77;;;1.20;;
25435;SDS011;13363;52.772;-3.890;2022-12-07T06:28:50;1.30;;;1.20;;
25435;SDS011;13363;52.772;-3.890;2022-12-07T06:31:15;3.33;;;1.07;;
25435;SDS011;13363;52.772;-3.890;2022-12-07T06:33:41;1.40;;;1.10;;
25435;SDS011;13363;52.772;-3.890;2022-12-07T06:36:08;1.53;;;1.00;;
25435;SDS011;13363;52.772;-3.890;2022-12-07T06:38:34;1.27;;;1.03;;
25435;SDS011;13363;52.772;-3.890;2022-12-07T06:41:00;2.10;;;1.07;;
25435;SDS011;13363;52.772;-3.890;2022-12-07T06:43:26;0.77;;;0.77;;
25435;SDS011;13363;52.772;-3.890;2022-12-07T06:45:52;2.07;;;1.27;;
25435;SDS011;13363;52.772;-3.890;2022-12-07T06:48:18;1.43;;;0.93;;
25435;SDS011;13363;52.772;-3.890;2022-12-07T06:50:44;1.47;;;1.00;;
25435;SDS011;13363;52.772;-3.890;2022-12-07T06:53:10;2.00;;;1.10;;
25435;SDS011;13363;52.772;-3.890;2022-12-07T06:55:36;2.27;;;1.00;;
25435;SDS011;13363;52.772;-3.890;2022-12-07T06:58:02;2.00;;;0.87;;
25435;SDS011;13363;52.772;-3.890;2022-12-07T07:00:28;1.63;;;1.07;;
25435;SDS011;13363;52.772;-3.890;2022-12-07T07:02:54;2.10;;;1.27;;
25435;SDS011;13363;52.772;-3.890;2022-12-07T07:05:20;2.87;;;1.00;;
25435;SDS011;13363;52.772;-3.890;2022-12-07T07:07:47;1.47;;;1.10;;
25435;SDS011;13363;52.772;-3.890;2022-12-07T07:10:14;1.30;;;1.20;;
25435;SDS011;13363;52.772;-3.890;2022-12-07T07:12:40;1.03;;;0.80;;
25435;SDS011;13363;52.772;-3.890;2022-12-07T07:15:06;2.53;;;0.80;;
25435;SDS011;13363;52.772;-3.890;2022-12-07T07:17:32;1.60;;;1.03;;
25435;SDS011;13363;52.772;-3.890;2022-12-07T07:19:58;0.90;;;0.90;;
25435;SDS011;13363;52.772;-3.890;2022-12-07T07:22:24;2.37;;;1.03;;
25435;SDS011;13363;52.772;-3.890;2022-12-07T07:24:49;1.90;;;1.00;;
25435;SDS011;13363;52.772;-3.890;2022-12-07T07:27:15;1.10;;;1.00;;
25435;SDS011;13363;52.772;-3.890;2022-12-07T07:29:41;0.93;;;0.93;;
25435;SDS011;13363;52.772;-3.890;2022-12-07T07:32:07;2.07;;;0.97;;
25435;SDS011;13363;52.772;-3.890;2022-12-07T07:34:33;3.40;;;1.13;;
25435;SDS011;13363;52.772;-3.890;2022-12-07T07:36:59;1.10;;;0.90;;
25435;SDS011;13363;52.772;-3.890;2022-12-07T07:39:25;1.03;;;1.00;;
25435;SDS011;13363;52.772;-3.890;2022-12-07T07:41:50;1.90;;;1.30;;
25435;SDS011;13363;52.772;-3.890;2022-12-07T07:44:16;3.13;;;1.23;;
25435;SDS011;13363;52.772;-3.890;2022-12-07T07:46:42;1.20;;;1.10;;
25435;SDS011;13363;52.772;-3.890;2022-12-07T07:49:11;1.67;;;1.20;;
25435;SDS011;13363;52.772;-3.890;2022-12-07T07:51:37;0.90;;;0.90;;
25435;SDS011;13363;52.772;-3.890;2022-12-07T07:54:03;4.13;;;1.03;;
25435;SDS011;13363;52.772;-3.890;2022-12-07T07:56:29;2.00;;;1.00;;
25435;SDS011;13363;52.772;-3.890;2022-12-07T07:58:55;1.70;;;1.23;;
25435;SDS011;13363;52.772;-3.890;2022-12-07T08:01:20;3.10;;;0.93;;
25435;SDS011;13363;52.772;-3.890;2022-12-07T08:03:46;1.40;;;0.90;;
25435;SDS011;13363;52.772;-3.890;2022-12-07T08:06:12;1.63;;;1.17;;
25435;SDS011;13363;52.772;-3.890;2022-12-07T08:08:38;2.33;;;1.70;;
25435;SDS011;13363;52.772;-3.890;2022-12-07T08:11:07;2.60;;;0.90;;
25435;SDS011;13363;52.772;-3.890;2022-12-07T08:13:34;1.97;;;1.10;;
25435;SDS011;13363;52.772;-3.890;2022-12-07T08:16:04;0.93;;;0.90;;
25435;SDS011;13363;52.772;-3.890;2022-12-07T08:18:36;1.20;;;1.10;;
25435;SDS011;13363;52.772;-3.890;2022-12-07T08:21:05;1.30;;;1.20;;
25435;SDS011;13363;52.772;-3.890;2022-12-07T08:23:32;1.30;;;1.10;;
25435;SDS011;13363;52.772;-3.890;2022-12-07T08:26:06;3.53;;;1.17;;
25435;SDS011;13363;52.772;-3.890;2022-12-07T08:28:33;1.23;;;1.00;;
25435;SDS011;13363;52.772;-3.890;2022-12-07T08:31:00;1.23;;;1.23;;
25435;SDS011;13363;52.772;-3.890;2022-12-07T08:33:27;2.37;;;1.30;;
25435;SDS011;13363;52.772;-3.890;2022-12-07T08:35:53;2.30;;;1.00;;
25435;SDS011;13363;52.772;-3.890;2022-12-07T08:38:19;1.20;;;1.10;;
25435;SDS011;13363;52.772;-3.890;2022-12-07T08:40:55;2.73;;;1.13;;
25435;SDS011;13363;52.772;-3.890;2022-12-07T08:43:22;2.70;;;1.40;;
25435;SDS011;13363;52.772;-3.890;2022-12-07T08:45:50;2.00;;;1.27;;
25435;SDS011;13363;52.772;-3.890;2022-12-07T08:48:30;2.77;;;1.27;;
25435;SDS011;13363;52.772;-3.890;2022-12-07T08:50:58;1.93;;;1.50;;
25435;SDS011;13363;52.772;-3.890;2022-12-07T08:53:23;4.27;;;1.50;;
25435;SDS011;13363;52.772;-3.890;2022-12-07T08:55:49;1.20;;;1.00;;
25435;SDS011;13363;52.772;-3.890;2022-12-07T08:58:15;2.27;;;1.10;;
25435;SDS011;13363;52.772;-3.890;2022-12-07T09:00:41;2.17;;;1.40;;
25435;SDS011;13363;52.772;-3.890;2022-12-07T09:03:07;1.80;;;1.30;;
25435;SDS011;13363;52.772;-3.890;2022-12-07T09:05:33;2.50;;;1.50;;
25435;SDS011;13363;52.772;-3.890;2022-12-07T09:08:00;3.73;;;1.60;;
25435;SDS011;13363;52.772;-3.890;2022-12-07T09:10:27;3.70;;;2.13;;
25435;SDS011;13363;52.772;-3.890;2022-12-07T09:12:53;4.33;;;1.53;;
25435;SDS011;13363;52.772;-3.890;2022-12-07T09:15:19;1.60;;;1.50;;
25435;SDS011;13363;52.772;-3.890;2022-12-07T09:17:45;2.53;;;1.73;;
25435;SDS011;13363;52.772;-3.890;2022-12-07T09:20:11;1.73;;;1.63;;
25435;SDS011;13363;52.772;-3.890;2022-12-07T09:22:37;1.50;;;1.27;;
25435;SDS011;13363;52.772;-3.890;2022-12-07T09:25:03;3.90;;;1.53;;
25435;SDS011;13363;52.772;-3.890;2022-12-07T09:27:29;2.87;;;1.27;;
25435;SDS011;13363;52.772;-3.890;2022-12-07T09:29:57;1.73;;;1.50;;
25435;SDS011;13363;52.772;-3.890;2022-12-07T09:32:23;2.33;;;1.80;;
25435;SDS011;13363;52.772;-3.890;2022-12-07T09:34:51;2.47;;;1.50;;
25435;SDS011;13363;52.772;-3.890;2022-12-07T09:37:19;2.87;;;1.90;;
25435;SDS011;13363;52.772;-3.890;2022-12-07T09:39:45;2.20;;;1.60;;
25435;SDS011;13363;52.772;-3.890;2022-12-07T09:42:14;2.13;;;2.03;;
25435;SDS011;13363;52.772;-3.890;2022-12-07T09:44:51;2.40;;;1.70;;
25435;SDS011;13363;52.772;-3.890;2022-12-07T09:47:17;4.70;;;2.00;;
25435;SDS011;13363;52.772;-3.890;2022-12-07T09:49:49;2.10;;;1.63;;
25435;SDS011;13363;52.772;-3.890;2022-12-07T09:52:20;2.20;;;1.70;;
25435;SDS011;13363;52.772;-3.890;2022-12-07T09:54:53;1.83;;;1.40;;
25435;SDS011;13363;52.772;-3.890;2022-12-07T09:57:27;1.50;;;1.40;;
25435;SDS011;13363;52.772;-3.890;2022-12-07T09:59:57;6.70;;;1.60;;
25435;SDS011;13363;52.772;-3.890;2022-12-07T10:02:34;2.03;;;1.60;;
25435;SDS011;13363;52.772;-3.890;2022-12-07T10:05:07;2.50;;;1.27;;
25435;SDS011;13363;52.772;-3.890;2022-12-07T10:07:38;2.83;;;1.67;;
25435;SDS011;13363;52.772;-3.890;2022-12-07T10:10:06;2.53;;;1.60;;
25435;SDS011;13363;52.772;-3.890;2022-12-07T10:15:58;2.37;;;1.60;;
25435;SDS011;13363;52.772;-3.890;2022-12-07T10:18:31;2.83;;;1.80;;
25435;SDS011;13363;52.772;-3.890;2022-12-07T10:23:30;2.37;;;1.60;;
25435;SDS011;13363;52.772;-3.890;2022-12-07T10:25:56;1.30;;;1.20;;
25435;SDS011;13363;52.772;-3.890;2022-12-07T10:28:22;1.30;;;1.27;;
25435;SDS011;13363;52.772;-3.890;2022-12-07T10:30:55;2.40;;;1.30;;
25435;SDS011;13363;52.772;-3.890;2022-12-07T10:36:16;2.77;;;1.53;;
25435;SDS011;13363;52.772;-3.890;2022-12-07T10:38:50;2.47;;;1.60;;
25435;SDS011;13363;52.772;-3.890;2022-12-07T10:41:18;1.77;;;1.57;;
25435;SDS011;13363;52.772;-3.890;2022-12-07T10:43:49;2.57;;;1.47;;
25435;SDS011;13363;52.772;-3.890;2022-12-07T10:46:37;1.77;;;1.37;;
25435;SDS011;13363;52.772;-3.890;2022-12-07T11:02:37;1.60;;;1.50;;
25435;SDS011;13363;52.772;-3.890;2022-12-07T11:07:51;2.07;;;1.67;;
25435;SDS011;13363;52.772;-3.890;2022-12-07T11:10:44;3.40;;;2.07;;
25435;SDS011;13363;52.772;-3.890;2022-12-07T11:13:47;1.97;;;1.77;;
25435;SDS011;13363;52.772;-3.890;2022-12-07T11:20:05;2.03;;;1.70;;
25435;SDS011;13363;52.772;-3.890;2022-12-07T11:30:56;2.77;;;1.50;;
25435;SDS011;13363;52.772;-3.890;2022-12-07T11:33:29;1.70;;;1.30;;
25435;SDS011;13363;52.772;-3.890;2022-12-07T11:36:23;1.30;;;1.23;;
25435;SDS011;13363;52.772;-3.890;2022-12-07T11:42:00;1.40;;;1.30;;
25435;SDS011;13363;52.772;-3.890;2022-12-07T11:44:59;1.20;;;1.10;;
25435;SDS011;13363;52.772;-3.890;2022-12-07T11:50:27;1.17;;;1.07;;
25435;SDS011;13363;52.772;-3.890;2022-12-07T11:58:23;2.13;;;1.33;;
25435;SDS011;13363;52.772;-3.890;2022-12-07T12:00:55;1.17;;;1.17;;
25435;SDS011;13363;52.772;-3.890;2022-12-07T12:03:44;2.23;;;1.30;;
25435;SDS011;13363;52.772;-3.890;2022-12-07T12:06:30;2.03;;;1.50;;
25435;SDS011;13363;52.772;-3.890;2022-12-07T12:14:54;2.80;;;2.10;;
25435;SDS011;13363;52.772;-3.890;2022-12-07T12:20:20;3.57;;;2.67;;
25435;SDS011;13363;52.772;-3.890;2022-12-07T12:22:50;3.03;;;2.30;;
25435;SDS011;13363;52.772;-3.890;2022-12-07T12:25:25;2.00;;;1.90;;
25435;SDS011;13363;52.772;-3.890;2022-12-07T12:33:48;2.50;;;1.80;;
25435;SDS011;13363;52.772;-3.890;2022-12-07T12:36:21;2.33;;;2.10;;
25435;SDS011;13363;52.772;-3.890;2022-12-07T12:49:30;2.27;;;1.33;;
25435;SDS011;13363;52.772;-3.890;2022-12-07T12:52:00;1.83;;;1.40;;
25435;SDS011;13363;52.772;-3.890;2022-12-07T12:57:34;2.27;;;1.70;;
25435;SDS011;13363;52.772;-3.890;2022-12-07T13:00:02;5.60;;;1.83;;
25435;SDS011;13363;52.772;-3.890;2022-12-07T13:02:50;2.83;;;1.80;;
25435;SDS011;13363;52.772;-3.890;2022-12-07T13:05:18;2.93;;;1.67;;
25435;SDS011;13363;52.772;-3.890;2022-12-07T13:07:58;2.23;;;1.57;;
25435;SDS011;13363;52.772;-3.890;2022-12-07T13:15:35;2.13;;;1.67;;
25435;SDS011;13363;52.772;-3.890;2022-12-07T13:20:40;2.43;;;1.63;;
25435;SDS011;13363;52.772;-3.890;2022-12-07T13:23:09;3.33;;;1.80;;
25435;SDS011;13363;52.772;-3.890;2022-12-07T13:25:38;2.83;;;1.50;;
25435;SDS011;13363;52.772;-3.890;2022-12-07T13:28:16;3.27;;;1.47;;
25435;SDS011;13363;52.772;-3.890;2022-12-07T13:31:03;1.50;;;1.40;;
25435;SDS011;13363;52.772;-3.890;2022-12-07T13:33:39;2.60;;;1.70;;
25435;SDS011;13363;52.772;-3.890;2022-12-07T13:36:11;2.63;;;1.07;;
25435;SDS011;13363;52.772;-3.890;2022-12-07T13:38:52;2.53;;;1.50;;
25435;SDS011;13363;52.772;-3.890;2022-12-07T13:41:18;3.17;;;1.90;;
25435;SDS011;13363;52.772;-3.890;2022-12-07T13:46:18;1.43;;;1.17;;
25435;SDS011;13363;52.772;-3.890;2022-12-07T13:48:49;5.33;;;1.37;;
25435;SDS011;13363;52.772;-3.890;2022-12-07T13:54:08;5.90;;;1.80;;
25435;SDS011;13363;52.772;-3.890;2022-12-07T13:56:37;4.03;;;2.03;;
25435;SDS011;13363;52.772;-3.890;2022-12-07T13:59:12;1.83;;;1.73;;
25435;SDS011;13363;52.772;-3.890;2022-12-07T14:01:47;3.77;;;1.83;;
25435;SDS011;13363;52.772;-3.890;2022-12-07T14:04:31;2.17;;;1.70;;
25435;SDS011;13363;52.772;-3.890;2022-12-07T14:06:59;1.20;;;1.20;;
25435;SDS011;13363;52.772;-3.890;2022-12-07T14:09:52;1.50;;;1.33;;
25435;SDS011;13363;52.772;-3.890;2022-12-07T14:12:29;1.83;;;1.50;;
25435;SDS011;13363;52.772;-3.890;2022-12-07T14:14:56;2.43;;;1.60;;
25435;SDS011;13363;52.772;-3.890;2022-12-07T14:17:24;1.30;;;1.17;;
25435;SDS011;13363;52.772;-3.890;2022-12-07T14:19:54;1.27;;;1.10;;
25435;SDS011;13363;52.772;-3.890;2022-12-07T14:22:26;2.63;;;1.50;;
25435;SDS011;13363;52.772;-3.890;2022-12-07T14:25:15;2.23;;;1.00;;
25435;SDS011;13363;52.772;-3.890;2022-12-07T14:28:24;2.80;;;2.00;;
25435;SDS011;13363;52.772;-3.890;2022-12-07T14:30:50;1.40;;;1.30;;
25435;SDS011;13363;52.772;-3.890;2022-12-07T14:33:17;0.83;;;0.83;;
25435;SDS011;13363;52.772;-3.890;2022-12-07T14:35:44;1.80;;;1.57;;
25435;SDS011;13363;52.772;-3.890;2022-12-07T14:38:10;1.13;;;1.03;;
25435;SDS011;13363;52.772;-3.890;2022-12-07T14:40:35;1.43;;;1.33;;
25435;SDS011;13363;52.772;-3.890;2022-12-07T14:43:05;2.47;;;1.60;;
25435;SDS011;13363;52.772;-3.890;2022-12-07T14:45:34;1.30;;;1.20;;
25435;SDS011;13363;52.772;-3.890;2022-12-07T14:48:00;1.70;;;1.40;;
25435;SDS011;13363;52.772;-3.890;2022-12-07T14:50:25;1.50;;;1.37;;
25435;SDS011;13363;52.772;-3.890;2022-12-07T14:52:55;3.43;;;1.60;;
25435;SDS011;13363;52.772;-3.890;2022-12-07T14:55:25;1.37;;;1.20;;
25435;SDS011;13363;52.772;-3.890;2022-12-07T14:57:52;1.50;;;1.40;;
25435;SDS011;13363;52.772;-3.890;2022-12-07T15:00:19;1.50;;;1.40;;
25435;SDS011;13363;52.772;-3.890;2022-12-07T15:02:46;3.63;;;1.77;;
25435;SDS011;13363;52.772;-3.890;2022-12-07T15:05:13;1.97;;;1.07;;
25435;SDS011;13363;52.772;-3.890;2022-12-07T15:07:40;3.80;;;1.60;;
25435;SDS011;13363;52.772;-3.890;2022-12-07T15:10:08;1.90;;;1.10;;
25435;SDS011;13363;52.772;-3.890;2022-12-07T15:12:41;3.40;;;0.90;;
25435;SDS011;13363;52.772;-3.890;2022-12-07T15:15:07;4.23;;;0.90;;
25435;SDS011;13363;52.772;-3.890;2022-12-07T15:17:33;1.20;;;1.20;;
25435;SDS011;13363;52.772;-3.890;2022-12-07T15:19:59;1.17;;;0.90;;
25435;SDS011;13363;52.772;-3.890;2022-12-07T15:22:26;0.97;;;0.97;;
25435;SDS011;13363;52.772;-3.890;2022-12-07T15:24:52;1.13;;;0.97;;
25435;SDS011;13363;52.772;-3.890;2022-12-07T15:27:17;1.07;;;0.97;;
25435;SDS011;13363;52.772;-3.890;2022-12-07T15:29:43;1.07;;;0.87;;
25435;SDS011;13363;52.772;-3.890;2022-12-07T15:32:09;1.00;;;0.70;;
25435;SDS011;13363;52.772;-3.890;2022-12-07T15:34:35;0.80;;;0.70;;
25435;SDS011;13363;52.772;-3.890;2022-12-07T15:37:01;1.37;;;0.70;;
25435;SDS011;13363;52.772;-3.890;2022-12-07T15:39:26;1.07;;;0.67;;
25435;SDS011;13363;52.772;-3.890;2022-12-07T15:41:52;0.57;;;0.57;;
25435;SDS011;13363;52.772;-3.890;2022-12-07T15:44:18;0.53;;;0.40;;
25435;SDS011;13363;52.772;-3.890;2022-12-07T15:47:03;0.37;;;0.37;;
25435;SDS011;13363;52.772;-3.890;2022-12-07T15:49:30;1.00;;;0.80;;
25435;SDS011;13363;52.772;-3.890;2022-12-07T15:51:56;0.47;;;0.47;;
25435;SDS011;13363;52.772;-3.890;2022-12-07T15:54:26;0.77;;;0.67;;
25435;SDS011;13363;52.772;-3.890;2022-12-07T15:56:53;1.03;;;0.63;;
25435;SDS011;13363;52.772;-3.890;2022-12-07T15:59:19;0.43;;;0.43;;
25435;SDS011;13363;52.772;-3.890;2022-12-07T16:01:45;2.83;;;0.57;;
25435;SDS011;13363;52.772;-3.890;2022-12-07T16:04:11;2.17;;;1.10;;
25435;SDS011;13363;52.772;-3.890;2022-12-07T16:06:37;0.80;;;0.70;;
25435;SDS011;13363;52.772;-3.890;2022-12-07T16:09:03;1.97;;;0.70;;
25435;SDS011;13363;52.772;-3.890;2022-12-07T16:11:29;1.37;;;0.60;;
25435;SDS011;13363;52.772;-3.890;2022-12-07T16:13:55;1.87;;;1.03;;
25435;SDS011;13363;52.772;-3.890;2022-12-07T16:16:21;1.70;;;1.17;;
25435;SDS011;13363;52.772;-3.890;2022-12-07T16:18:47;2.27;;;1.43;;
25435;SDS011;13363;52.772;-3.890;2022-12-07T16:21:15;0.90;;;0.90;;
25435;SDS011;13363;52.772;-3.890;2022-12-07T16:23:42;1.10;;;0.77;;
25435;SDS011;13363;52.772;-3.890;2022-12-07T16:26:10;3.90;;;0.73;;
25435;SDS011;13363;52.772;-3.890;2022-12-07T16:28:41;2.50;;;0.93;;
25435;SDS011;13363;52.772;-3.890;2022-12-07T16:31:10;1.97;;;0.60;;
25435;SDS011;13363;52.772;-3.890;2022-12-07T16:33:38;2.37;;;1.00;;
25435;SDS011;13363;52.772;-3.890;2022-12-07T16:36:05;3.37;;;1.47;;
25435;SDS011;13363;52.772;-3.890;2022-12-07T16:38:32;0.90;;;0.90;;
25435;SDS011;13363;52.772;-3.890;2022-12-07T16:40:58;1.60;;;1.07;;
25435;SDS011;13363;52.772;-3.890;2022-12-07T16:43:24;1.00;;;1.00;;
25435;SDS011;13363;52.772;-3.890;2022-12-07T16:45:50;2.27;;;1.00;;
25435;SDS011;13363;52.772;-3.890;2022-12-07T16:48:16;0.80;;;0.80;;
25435;SDS011;13363;52.772;-3.890;2022-12-07T16:50:43;1.03;;;1.03;;
25435;SDS011;13363;52.772;-3.890;2022-12-07T16:53:10;1.10;;;0.70;;
25435;SDS011;13363;52.772;-3.890;2022-12-07T16:55:37;0.90;;;0.90;;
25435;SDS011;13363;52.772;-3.890;2022-12-07T16:58:03;2.23;;;0.90;;
25435;SDS011;13363;52.772;-3.890;2022-12-07T17:00:30;2.60;;;0.80;;
25435;SDS011;13363;52.772;-3.890;2022-12-07T17:02:56;0.87;;;0.80;;